sensor_id;sensor_type;location;lat;lon;timestamp;pressure;altitude;pressure_sealevel;temperature;humidity
26043;BME280;13818;52.156;5.382;2024-02-28T00:01:54;101752.38;;;3.45;100.00
26043;BME280;13818;52.156;5.382;2024-02-28T00:04:20;101752.34;;;3.60;100.00
26043;BME280;13818;52.156;5.382;2024-02-28T00:06:47;101756.78;;;3.53;100.00
26043;BME280;13818;52.156;5.382;2024-02-28T00:09:13;101746.22;;;3.50;100.00
26043;BME280;13818;52.156;5.382;2024-02-28T00:11:42;101745.34;;;3.45;100.00
26043;BME280;13818;52.156;5.382;2024-02-28T00:14:09;101744.50;;;3.38;100.00
26043;BME280;13818;52.156;5.382;2024-02-28T00:16:39;101742.72;;;3.33;100.00
26043;BME280;13818;52.156;5.382;2024-02-28T00:19:06;101746.28;;;3.27;100.00
26043;BME280;13818;52.156;5.382;2024-02-28T00:21:32;101744.50;;;3.28;100.00
26043;BME280;13818;52.156;5.382;2024-02-28T00:24:00;101748.03;;;3.22;100.00
26043;BME280;13818;52.156;5.382;2024-02-28T00:26:26;101747.16;;;3.23;100.00
26043;BME280;13818;52.156;5.382;2024-02-28T00:28:53;101744.53;;;3.18;100.00
26043;BME280;13818;52.156;5.382;2024-02-28T00:31:19;101748.00;;;3.19;100.00
26043;BME280;13818;52.156;5.382;2024-02-28T00:33:48;101744.53;;;3.24;100.00
26043;BME280;13818;52.156;5.382;2024-02-28T00:36:14;101743.63;;;3.29;100.00
26043;BME280;13818;52.156;5.382;2024-02-28T00:38:41;101743.63;;;3.27;100.00
26043;BME280;13818;52.156;5.382;2024-02-28T00:41:08;101743.63;;;3.21;100.00
26043;BME280;13818;52.156;5.382;2024-02-28T00:43:34;101744.53;;;3.12;100.00
26043;BME280;13818;52.156;5.382;2024-02-28T00:46:01;101741.88;;;3.14;100.00
26043;BME280;13818;52.156;5.382;2024-02-28T00:48:28;101747.16;;;3.12;100.00
26043;BME280;13818;52.156;5.382;2024-02-28T00:50:56;101746.28;;;3.16;100.00
26043;BME280;13818;52.156;5.382;2024-02-28T00:53:23;101741.88;;;3.21;100.00
26043;BME280;13818;52.156;5.382;2024-02-28T00:55:49;101753.28;;;3.17;100.00
26043;BME280;13818;52.156;5.382;2024-02-28T00:58:17;101742.75;;;3.11;100.00
26043;BME280;13818;52.156;5.382;2024-02-28T01:00:43;101745.41;;;3.06;100.00
26043;BME280;13818;52.156;5.382;2024-02-28T01:03:10;101746.28;;;3.07;100.00
26043;BME280;13818;52.156;5.382;2024-02-28T01:05:39;101744.53;;;3.04;100.00
26043;BME280;13818;52.156;5.382;2024-02-28T01:08:07;101740.13;;;3.03;100.00
26043;BME280;13818;52.156;5.382;2024-02-28T01:10:34;101734.88;;;2.97;100.00
26043;BME280;13818;52.156;5.382;2024-02-28T01:13:02;101740.13;;;2.97;100.00
26043;BME280;13818;52.156;5.382;2024-02-28T01:15:29;101734.88;;;2.96;100.00
26043;BME280;13818;52.156;5.382;2024-02-28T01:17:55;101732.22;;;2.91;100.00
26043;BME280;13818;52.156;5.382;2024-02-28T01:20:21;101729.59;;;2.97;100.00
26043;BME280;13818;52.156;5.382;2024-02-28T01:22:47;101728.72;;;2.90;100.00
26043;BME280;13818;52.156;5.382;2024-02-28T01:25:15;101736.63;;;2.84;100.00
26043;BME280;13818;52.156;5.382;2024-02-28T01:27:42;101736.63;;;2.83;100.00
26043;BME280;13818;52.156;5.382;2024-02-28T01:30:09;101728.72;;;2.70;100.00
26043;BME280;13818;52.156;5.382;2024-02-28T01:32:36;101732.22;;;2.71;100.00
26043;BME280;13818;52.156;5.382;2024-02-28T01:35:02;101732.25;;;2.72;100.00
26043;BME280;13818;52.156;5.382;2024-02-28T01:37:29;101725.19;;;2.68;100.00
26043;BME280;13818;52.156;5.382;2024-02-28T01:39:57;101724.31;;;2.69;100.00
26043;BME280;13818;52.156;5.382;2024-02-28T01:42:24;101723.44;;;2.56;100.00
26043;BME280;13818;52.156;5.382;2024-02-28T01:44:51;101717.28;;;2.42;100.00
26043;BME280;13818;52.156;5.382;2024-02-28T01:47:17;101730.44;;;2.31;100.00
26043;BME280;13818;52.156;5.382;2024-02-28T01:49:46;101727.75;;;2.20;100.00
26043;BME280;13818;52.156;5.382;2024-02-28T01:52:13;101722.47;;;2.14;100.00
26043;BME280;13818;52.156;5.382;2024-02-28T01:54:41;101726.84;;;2.07;100.00
26043;BME280;13818;52.156;5.382;2024-02-28T01:57:08;101723.31;;;2.02;100.00
26043;BME280;13818;52.156;5.382;2024-02-28T01:59:36;101724.16;;;1.97;100.00
26043;BME280;13818;52.156;5.382;2024-02-28T02:02:03;101725.97;;;2.07;100.00
26043;BME280;13818;52.156;5.382;2024-02-28T02:04:30;101730.31;;;2.02;100.00
26043;BME280;13818;52.156;5.382;2024-02-28T02:06:56;101722.44;;;1.95;100.00
26043;BME280;13818;52.156;5.382;2024-02-28T02:09:25;101739.00;;;1.85;100.00
26043;BME280;13818;52.156;5.382;2024-02-28T02:11:53;101729.41;;;1.87;100.00
26043;BME280;13818;52.156;5.382;2024-02-28T02:14:19;101729.38;;;1.90;100.00
26043;BME280;13818;52.156;5.382;2024-02-28T02:16:47;101737.28;;;1.86;100.00
26043;BME280;13818;52.156;5.382;2024-02-28T02:19:13;101736.38;;;1.82;100.00
26043;BME280;13818;52.156;5.382;2024-02-28T02:21:43;101731.16;;;1.87;100.00
26043;BME280;13818;52.156;5.382;2024-02-28T02:24:13;101728.50;;;1.84;100.00
26043;BME280;13818;52.156;5.382;2024-02-28T02:26:41;101732.88;;;1.80;100.00
26043;BME280;13818;52.156;5.382;2024-02-28T02:29:10;101739.88;;;1.81;100.00
26043;BME280;13818;52.156;5.382;2024-02-28T02:31:37;101728.50;;;1.81;100.00
26043;BME280;13818;52.156;5.382;2024-02-28T02:34:03;101733.75;;;1.82;100.00
26043;BME280;13818;52.156;5.382;2024-02-28T02:36:31;101735.53;;;1.85;100.00
26043;BME280;13818;52.156;5.382;2024-02-28T02:38:57;101732.88;;;1.80;100.00
26043;BME280;13818;52.156;5.382;2024-02-28T02:41:25;101728.50;;;1.81;100.00
26043;BME280;13818;52.156;5.382;2024-02-28T02:43:51;101718.84;;;1.83;100.00
26043;BME280;13818;52.156;5.382;2024-02-28T02:46:18;101727.63;;;1.85;100.00
26043;BME280;13818;52.156;5.382;2024-02-28T02:48:45;101714.50;;;1.83;100.00
26043;BME280;13818;52.156;5.382;2024-02-28T02:51:12;101708.34;;;1.79;100.00
26043;BME280;13818;52.156;5.382;2024-02-28T02:53:38;101711.84;;;1.80;100.00
26043;BME280;13818;52.156;5.382;2024-02-28T02:56:05;101721.47;;;1.79;100.00
26043;BME280;13818;52.156;5.382;2024-02-28T02:58:34;101721.44;;;1.76;100.00
26043;BME280;13818;52.156;5.382;2024-02-28T03:01:01;101724.97;;;1.77;100.00
26043;BME280;13818;52.156;5.382;2024-02-28T03:03:27;101730.19;;;1.74;100.00
26043;BME280;13818;52.156;5.382;2024-02-28T03:05:54;101725.81;;;1.71;100.00
26043;BME280;13818;52.156;5.382;2024-02-28T03:08:20;101724.06;;;1.70;100.00
26043;BME280;13818;52.156;5.382;2024-02-28T03:10:47;101725.81;;;1.67;100.00
26043;BME280;13818;52.156;5.382;2024-02-28T03:13:13;101719.66;;;1.68;100.00
26043;BME280;13818;52.156;5.382;2024-02-28T03:15:42;101717.94;;;1.70;100.00
26043;BME280;13818;52.156;5.382;2024-02-28T03:18:08;101717.91;;;1.71;100.00
26043;BME280;13818;52.156;5.382;2024-02-28T03:20:34;101701.31;;;1.75;100.00
26043;BME280;13818;52.156;5.382;2024-02-28T03:23:03;101702.22;;;1.81;100.00
26043;BME280;13818;52.156;5.382;2024-02-28T03:25:31;101703.97;;;1.85;100.00
26043;BME280;13818;52.156;5.382;2024-02-28T03:27:57;101704.84;;;1.85;100.00
26043;BME280;13818;52.156;5.382;2024-02-28T03:30:24;101711.84;;;1.88;100.00
26043;BME280;13818;52.156;5.382;2024-02-28T03:32:52;101714.50;;;1.91;100.00
26043;BME280;13818;52.156;5.382;2024-02-28T03:35:19;101709.25;;;1.92;100.00
26043;BME280;13818;52.156;5.382;2024-02-28T03:37:46;101715.41;;;1.94;100.00
26043;BME280;13818;52.156;5.382;2024-02-28T03:40:13;101718.94;;;1.98;100.00
26043;BME280;13818;52.156;5.382;2024-02-28T03:42:40;101716.31;;;2.00;100.00
26043;BME280;13818;52.156;5.382;2024-02-28T03:45:06;101712.81;;;2.05;100.00
26043;BME280;13818;52.156;5.382;2024-02-28T03:47:33;101727.72;;;2.11;100.00
26043;BME280;13818;52.156;5.382;2024-02-28T03:50:01;101714.56;;;2.08;100.00
26043;BME280;13818;52.156;5.382;2024-02-28T03:52:29;101713.72;;;2.14;100.00
26043;BME280;13818;52.156;5.382;2024-02-28T03:54:56;101714.59;;;2.19;100.00
26043;BME280;13818;52.156;5.382;2024-02-28T03:57:23;101710.22;;;2.25;100.00
26043;BME280;13818;52.156;5.382;2024-02-28T03:59:50;101712.00;;;2.30;100.00
26043;BME280;13818;52.156;5.382;2024-02-28T04:02:16;101719.88;;;2.34;100.00
26043;BME280;13818;52.156;5.382;2024-02-28T04:04:43;101709.38;;;2.40;100.00
26043;BME280;13818;52.156;5.382;2024-02-28T04:07:11;101712.03;;;2.45;100.00
26043;BME280;13818;52.156;5.382;2024-02-28T04:09:37;101719.03;;;2.48;100.00
26043;BME280;13818;52.156;5.382;2024-02-28T04:12:04;101719.06;;;2.46;100.00
26043;BME280;13818;52.156;5.382;2024-02-28T04:14:30;101721.66;;;2.51;100.00
26043;BME280;13818;52.156;5.382;2024-02-28T04:16:57;101724.34;;;2.60;100.00
26043;BME280;13818;52.156;5.382;2024-02-28T04:19:24;101719.94;;;2.65;100.00
26043;BME280;13818;52.156;5.382;2024-02-28T04:21:51;101729.63;;;2.72;100.00
26043;BME280;13818;52.156;5.382;2024-02-28T04:24:19;101727.84;;;2.81;100.00
26043;BME280;13818;52.156;5.382;2024-02-28T04:26:45;101726.97;;;2.88;100.00
26043;BME280;13818;52.156;5.382;2024-02-28T04:29:12;101723.47;;;2.97;100.00
26043;BME280;13818;52.156;5.382;2024-02-28T04:31:39;101729.63;;;3.00;100.00
26043;BME280;13818;52.156;5.382;2024-02-28T04:34:06;101729.59;;;3.09;100.00
26043;BME280;13818;52.156;5.382;2024-02-28T04:36:33;101719.94;;;3.18;100.00
26043;BME280;13818;52.156;5.382;2024-02-28T04:38:59;101721.69;;;3.27;100.00
26043;BME280;13818;52.156;5.382;2024-02-28T04:41:28;101724.28;;;3.31;100.00
26043;BME280;13818;52.156;5.382;2024-02-28T04:43:54;101713.75;;;3.31;100.00
26043;BME280;13818;52.156;5.382;2024-02-28T04:46:21;101726.06;;;3.37;100.00
26043;BME280;13818;52.156;5.382;2024-02-28T04:48:46;101735.69;;;3.46;100.00
26043;BME280;13818;52.156;5.382;2024-02-28T04:51:15;101737.44;;;3.48;100.00
26043;BME280;13818;52.156;5.382;2024-02-28T04:53:42;101748.84;;;3.56;100.00
26043;BME280;13818;52.156;5.382;2024-02-28T04:56:09;101756.72;;;3.63;100.00
26043;BME280;13818;52.156;5.382;2024-02-28T04:58:38;101747.94;;;3.70;100.00
26043;BME280;13818;52.156;5.382;2024-02-28T05:01:05;101754.94;;;3.74;100.00
26043;BME280;13818;52.156;5.382;2024-02-28T05:03:31;101761.94;;;3.84;100.00
26043;BME280;13818;52.156;5.382;2024-02-28T05:05:58;101754.88;;;3.89;100.00
26043;BME280;13818;52.156;5.382;2024-02-28T05:08:25;101751.41;;;3.86;100.00
26043;BME280;13818;52.156;5.382;2024-02-28T05:10:52;101748.75;;;3.84;100.00
26043;BME280;13818;52.156;5.382;2024-02-28T05:13:19;101754.94;;;3.83;100.00
26043;BME280;13818;52.156;5.382;2024-02-28T05:15:48;101747.88;;;3.79;100.00
26043;BME280;13818;52.156;5.382;2024-02-28T05:18:16;101751.44;;;3.80;100.00
26043;BME280;13818;52.156;5.382;2024-02-28T05:20:42;101755.78;;;3.87;100.00
26043;BME280;13818;52.156;5.382;2024-02-28T05:23:09;101760.16;;;3.93;100.00
26043;BME280;13818;52.156;5.382;2024-02-28T05:25:35;101763.69;;;3.95;100.00
26043;BME280;13818;52.156;5.382;2024-02-28T05:28:02;101765.47;;;3.86;100.00
26043;BME280;13818;52.156;5.382;2024-02-28T05:30:29;101760.16;;;3.93;100.00
26043;BME280;13818;52.156;5.382;2024-02-28T05:32:57;101762.78;;;3.94;100.00
26043;BME280;13818;52.156;5.382;2024-02-28T05:35:23;101759.28;;;3.95;100.00
26043;BME280;13818;52.156;5.382;2024-02-28T05:37:53;101752.22;;;3.99;100.00
26043;BME280;13818;52.156;5.382;2024-02-28T05:40:19;101763.69;;;3.95;100.00
26043;BME280;13818;52.156;5.382;2024-02-28T05:42:46;101762.78;;;3.97;100.00
26043;BME280;13818;52.156;5.382;2024-02-28T05:45:13;101754.91;;;3.88;100.00
26043;BME280;13818;52.156;5.382;2024-02-28T05:47:39;101761.03;;;3.91;100.00
26043;BME280;13818;52.156;5.382;2024-02-28T05:50:08;101753.13;;;3.87;100.00
26043;BME280;13818;52.156;5.382;2024-02-28T05:52:35;101752.25;;;3.89;100.00
26043;BME280;13818;52.156;5.382;2024-02-28T05:55:01;101751.34;;;4.00;100.00
26043;BME280;13818;52.156;5.382;2024-02-28T05:57:28;101746.06;;;3.97;100.00
26043;BME280;13818;52.156;5.382;2024-02-28T05:59:54;101746.06;;;4.00;100.00
26043;BME280;13818;52.156;5.382;2024-02-28T06:02:21;101753.03;;;4.12;100.00
26043;BME280;13818;52.156;5.382;2024-02-28T06:04:47;101749.50;;;4.16;100.00
26043;BME280;13818;52.156;5.382;2024-02-28T06:07:15;101749.47;;;4.22;100.00
26043;BME280;13818;52.156;5.382;2024-02-28T06:09:42;101758.22;;;4.36;100.00
26043;BME280;13818;52.156;5.382;2024-02-28T06:12:08;101754.63;;;4.42;100.00
26043;BME280;13818;52.156;5.382;2024-02-28T06:14:34;101760.78;;;4.46;100.00
26043;BME280;13818;52.156;5.382;2024-02-28T06:17:01;101759.03;;;4.48;100.00
26043;BME280;13818;52.156;5.382;2024-02-28T06:19:27;101759.81;;;4.57;100.00
26043;BME280;13818;52.156;5.382;2024-02-28T06:21:54;101758.94;;;4.57;100.00
26043;BME280;13818;52.156;5.382;2024-02-28T06:24:22;101769.44;;;4.66;100.00
26043;BME280;13818;52.156;5.382;2024-02-28T06:26:48;101763.31;;;4.61;100.00
26043;BME280;13818;52.156;5.382;2024-02-28T06:29:15;101767.63;;;4.75;100.00
26043;BME280;13818;52.156;5.382;2024-02-28T06:31:41;101772.03;;;4.76;100.00
26043;BME280;13818;52.156;5.382;2024-02-28T06:34:08;101777.25;;;4.85;100.00
26043;BME280;13818;52.156;5.382;2024-02-28T06:36:35;101766.63;;;4.93;100.00
26043;BME280;13818;52.156;5.382;2024-02-28T06:39:02;101772.78;;;4.95;100.00
26043;BME280;13818;52.156;5.382;2024-02-28T06:41:30;101775.38;;;4.98;100.00
26043;BME280;13818;52.156;5.382;2024-02-28T06:43:57;101782.53;;;4.88;100.00
26043;BME280;13818;52.156;5.382;2024-02-28T06:46:24;101788.63;;;4.92;100.00
26043;BME280;13818;52.156;5.382;2024-02-28T06:48:50;101785.94;;;5.02;100.00
26043;BME280;13818;52.156;5.382;2024-02-28T06:51:17;101795.69;;;4.96;100.00
26043;BME280;13818;52.156;5.382;2024-02-28T06:53:43;101790.38;;;4.97;100.00
26043;BME280;13818;52.156;5.382;2024-02-28T06:56:10;101803.56;;;5.02;100.00
26043;BME280;13818;52.156;5.382;2024-02-28T06:58:38;101813.22;;;5.04;100.00
26043;BME280;13818;52.156;5.382;2024-02-28T07:01:04;101810.56;;;5.06;100.00
26043;BME280;13818;52.156;5.382;2024-02-28T07:03:31;101811.47;;;5.03;100.00
26043;BME280;13818;52.156;5.382;2024-02-28T07:05:57;101816.72;;;5.05;100.00
26043;BME280;13818;52.156;5.382;2024-02-28T07:08:24;101813.19;;;5.08;100.00
26043;BME280;13818;52.156;5.382;2024-02-28T07:10:50;101816.72;;;5.07;100.00
26043;BME280;13818;52.156;5.382;2024-02-28T07:13:21;101813.25;;;5.00;100.00
26043;BME280;13818;52.156;5.382;2024-02-28T07:15:49;101817.66;;;4.99;100.00
26043;BME280;13818;52.156;5.382;2024-02-28T07:18:16;101816.75;;;5.00;100.00
26043;BME280;13818;52.156;5.382;2024-02-28T07:20:43;101813.28;;;4.95;100.00
26043;BME280;13818;52.156;5.382;2024-02-28T07:23:10;101822.97;;;4.99;100.00
26043;BME280;13818;52.156;5.382;2024-02-28T07:25:36;101827.31;;;5.00;100.00
26043;BME280;13818;52.156;5.382;2024-02-28T07:28:03;101833.44;;;5.09;100.00
26043;BME280;13818;52.156;5.382;2024-02-28T07:30:30;101830.81;;;5.05;100.00
26043;BME280;13818;52.156;5.382;2024-02-28T07:32:58;101834.28;;;5.15;100.00
26043;BME280;13818;52.156;5.382;2024-02-28T07:35:24;101835.19;;;5.11;100.00
26043;BME280;13818;52.156;5.382;2024-02-28T07:37:51;101838.72;;;5.13;100.00
26043;BME280;13818;52.156;5.382;2024-02-28T07:40:18;101839.63;;;5.08;100.00
26043;BME280;13818;52.156;5.382;2024-02-28T07:42:44;101840.50;;;5.07;100.00
26043;BME280;13818;52.156;5.382;2024-02-28T07:45:11;101848.47;;;5.02;100.00
26043;BME280;13818;52.156;5.382;2024-02-28T07:47:37;101849.38;;;4.99;100.00
26043;BME280;13818;52.156;5.382;2024-02-28T07:50:07;101844.94;;;5.01;100.00
26043;BME280;13818;52.156;5.382;2024-02-28T07:52:34;101844.06;;;5.02;100.00
26043;BME280;13818;52.156;5.382;2024-02-28T07:55:05;101842.28;;;5.06;100.00
26043;BME280;13818;52.156;5.382;2024-02-28T07:57:31;101846.66;;;5.09;100.00
26043;BME280;13818;52.156;5.382;2024-02-28T07:59:58;101850.16;;;5.12;100.00
26043;BME280;13818;52.156;5.382;2024-02-28T08:02:25;101860.66;;;5.21;100.00
26043;BME280;13818;52.156;5.382;2024-02-28T08:04:52;101862.34;;;5.33;100.00
26043;BME280;13818;52.156;5.382;2024-02-28T08:07:20;101871.94;;;5.44;100.00
26043;BME280;13818;52.156;5.382;2024-02-28T08:09:46;101879.78;;;5.58;100.00
26043;BME280;13818;52.156;5.382;2024-02-28T08:12:13;101877.94;;;5.67;100.00
26043;BME280;13818;52.156;5.382;2024-02-28T08:14:39;101877.91;;;5.69;100.00
26043;BME280;13818;52.156;5.382;2024-02-28T08:17:06;101881.41;;;5.71;100.00
26043;BME280;13818;52.156;5.382;2024-02-28T08:19:33;101883.25;;;5.60;100.00
26043;BME280;13818;52.156;5.382;2024-02-28T08:22:00;101878.91;;;5.56;100.00
26043;BME280;13818;52.156;5.382;2024-02-28T08:24:28;101878.91;;;5.54;100.00
26043;BME280;13818;52.156;5.382;2024-02-28T08:26:55;101878.03;;;5.55;100.00
26043;BME280;13818;52.156;5.382;2024-02-28T08:29:21;101892.09;;;5.57;100.00
26043;BME280;13818;52.156;5.382;2024-02-28T08:31:48;101886.81;;;5.56;100.00
26043;BME280;13818;52.156;5.382;2024-02-28T08:34:15;101890.31;;;5.59;100.00
26043;BME280;13818;52.156;5.382;2024-02-28T08:36:43;101890.31;;;5.64;100.00
26043;BME280;13818;52.156;5.382;2024-02-28T08:39:09;101894.66;;;5.68;100.00
26043;BME280;13818;52.156;5.382;2024-02-28T08:41:37;101896.41;;;5.74;100.00
26043;BME280;13818;52.156;5.382;2024-02-28T08:44:04;101894.56;;;5.77;100.00
26043;BME280;13818;52.156;5.382;2024-02-28T08:46:30;101898.97;;;5.78;100.00
26043;BME280;13818;52.156;5.382;2024-02-28T08:48:57;101906.06;;;5.76;100.00
26043;BME280;13818;52.156;5.382;2024-02-28T08:51:25;101906.06;;;5.73;100.00
26043;BME280;13818;52.156;5.382;2024-02-28T08:53:52;101902.53;;;5.76;100.00
26043;BME280;13818;52.156;5.382;2024-02-28T08:56:20;101899.88;;;5.76;100.00
26043;BME280;13818;52.156;5.382;2024-02-28T08:58:48;101897.22;;;5.77;100.00
26043;BME280;13818;52.156;5.382;2024-02-28T09:01:15;101898.91;;;5.84;100.00
26043;BME280;13818;52.156;5.382;2024-02-28T09:03:42;101903.28;;;5.90;100.00
26043;BME280;13818;52.156;5.382;2024-02-28T09:06:09;101903.28;;;5.90;100.00
26043;BME280;13818;52.156;5.382;2024-02-28T09:08:35;101893.50;;;5.97;100.00
26043;BME280;13818;52.156;5.382;2024-02-28T09:11:02;101890.00;;;5.99;100.00
26043;BME280;13818;52.156;5.382;2024-02-28T09:13:29;101879.34;;;6.02;100.00
26043;BME280;13818;52.156;5.382;2024-02-28T09:15:57;101883.69;;;6.11;100.00
26043;BME280;13818;52.156;5.382;2024-02-28T09:18:24;101873.03;;;6.17;100.00
26043;BME280;13818;52.156;5.382;2024-02-28T09:20:50;101872.09;;;6.23;100.00
26043;BME280;13818;52.156;5.382;2024-02-28T09:23:17;101874.59;;;6.34;100.00
26043;BME280;13818;52.156;5.382;2024-02-28T09:25:43;101869.19;;;6.45;100.00
26043;BME280;13818;52.156;5.382;2024-02-28T09:28:10;101875.25;;;6.55;100.00
26043;BME280;13818;52.156;5.382;2024-02-28T09:30:38;101882.09;;;6.71;100.00
26043;BME280;13818;52.156;5.382;2024-02-28T09:33:06;101886.34;;;6.83;100.00
26043;BME280;13818;52.156;5.382;2024-02-28T09:35:35;101892.28;;;7.00;100.00
26043;BME280;13818;52.156;5.382;2024-02-28T09:38:02;101886.88;;;7.10;100.00
26043;BME280;13818;52.156;5.382;2024-02-28T09:40:30;101890.09;;;7.29;100.00
26043;BME280;13818;52.156;5.382;2024-02-28T09:43:00;101888.16;;;7.39;100.00
26043;BME280;13818;52.156;5.382;2024-02-28T09:45:27;101892.53;;;7.41;100.00
26043;BME280;13818;52.156;5.382;2024-02-28T09:47:55;101893.19;;;7.56;100.00
26043;BME280;13818;52.156;5.382;2024-02-28T09:50:25;101899.03;;;7.76;100.00
26043;BME280;13818;52.156;5.382;2024-02-28T09:52:52;101910.19;;;7.95;100.00
26043;BME280;13818;52.156;5.382;2024-02-28T09:55:18;101905.44;;;8.13;100.00
26043;BME280;13818;52.156;5.382;2024-02-28T09:57:47;101908.97;;;8.15;100.00
26043;BME280;13818;52.156;5.382;2024-02-28T10:00:16;101911.41;;;8.27;100.00
26043;BME280;13818;52.156;5.382;2024-02-28T10:02:47;101903.47;;;8.24;100.00
26043;BME280;13818;52.156;5.382;2024-02-28T10:05:14;101910.31;;;8.38;100.00
26043;BME280;13818;52.156;5.382;2024-02-28T10:07:42;101911.06;;;8.43;100.00
26043;BME280;13818;52.156;5.382;2024-02-28T10:10:09;101918.19;;;8.41;100.00
26043;BME280;13818;52.156;5.382;2024-02-28T10:12:40;101913.69;;;8.48;100.00
26043;BME280;13818;52.156;5.382;2024-02-28T10:15:07;101914.34;;;8.59;100.00
26043;BME280;13818;52.156;5.382;2024-02-28T10:17:35;101914.38;;;8.57;100.00
26043;BME280;13818;52.156;5.382;2024-02-28T10:20:02;101914.31;;;8.60;100.00
26043;BME280;13818;52.156;5.382;2024-02-28T10:22:34;101913.16;;;8.72;100.00
26043;BME280;13818;52.156;5.382;2024-02-28T10:25:02;101925.31;;;8.84;100.00
26043;BME280;13818;52.156;5.382;2024-02-28T10:27:31;101912.84;;;8.86;100.00
26043;BME280;13818;52.156;5.382;2024-02-28T10:29:57;101920.78;;;8.89;100.00
26043;BME280;13818;52.156;5.382;2024-02-28T10:32:24;101919.72;;;8.98;100.00
26043;BME280;13818;52.156;5.382;2024-02-28T10:34:51;101904.38;;;9.09;100.00
26043;BME280;13818;52.156;5.382;2024-02-28T10:37:19;101911.19;;;9.23;100.00
26043;BME280;13818;52.156;5.382;2024-02-28T10:39:46;101912.88;;;9.61;100.00
26043;BME280;13818;52.156;5.382;2024-02-28T10:42:14;101917.06;;;9.72;100.00
26043;BME280;13818;52.156;5.382;2024-02-28T10:44:41;101910.03;;;9.71;100.00
26043;BME280;13818;52.156;5.382;2024-02-28T10:47:08;101910.44;;;9.88;100.00
26043;BME280;13818;52.156;5.382;2024-02-28T10:49:36;101905.44;;;9.76;100.00
26043;BME280;13818;52.156;5.382;2024-02-28T10:52:03;101899.59;;;9.96;100.00
26043;BME280;13818;52.156;5.382;2024-02-28T10:54:31;101906.41;;;10.06;100.00
26043;BME280;13818;52.156;5.382;2024-02-28T10:56:59;101900.38;;;10.00;100.00
26043;BME280;13818;52.156;5.382;2024-02-28T10:59:28;101906.03;;;9.87;100.00
26043;BME280;13818;52.156;5.382;2024-02-28T11:01:55;101898.75;;;9.59;100.00
26043;BME280;13818;52.156;5.382;2024-02-28T11:04:21;101887.31;;;9.54;100.00
26043;BME280;13818;52.156;5.382;2024-02-28T11:06:48;101884.38;;;9.67;100.00
26043;BME280;13818;52.156;5.382;2024-02-28T11:09:19;101882.28;;;9.80;100.00
26043;BME280;13818;52.156;5.382;2024-02-28T11:11:47;101887.19;;;9.95;100.00
26043;BME280;13818;52.156;5.382;2024-02-28T11:14:15;101887.63;;;10.11;100.00
26043;BME280;13818;52.156;5.382;2024-02-28T11:16:42;101892.88;;;10.14;100.00
26043;BME280;13818;52.156;5.382;2024-02-28T11:19:19;101888.13;;;10.25;100.00
26043;BME280;13818;52.156;5.382;2024-02-28T11:21:52;101885.97;;;10.40;100.00
26043;BME280;13818;52.156;5.382;2024-02-28T11:24:22;101880.75;;;10.37;100.00
26043;BME280;13818;52.156;5.382;2024-02-28T11:26:49;101883.00;;;10.51;100.00
26043;BME280;13818;52.156;5.382;2024-02-28T11:29:22;101891.56;;;10.62;100.00
26043;BME280;13818;52.156;5.382;2024-02-28T11:31:51;101889.31;;;10.48;100.00
26043;BME280;13818;52.156;5.382;2024-02-28T11:34:17;101885.59;;;10.21;100.00
26043;BME280;13818;52.156;5.382;2024-02-28T11:36:47;101886.88;;;10.40;100.00
26043;BME280;13818;52.156;5.382;2024-02-28T11:39:13;101876.16;;;10.42;100.00
26043;BME280;13818;52.156;5.382;2024-02-28T11:41:40;101881.66;;;10.36;100.00
26043;BME280;13818;52.156;5.382;2024-02-28T11:44:06;101870.63;;;10.48;100.00
26043;BME280;13818;52.156;5.382;2024-02-28T11:46:33;101878.34;;;10.59;100.00
26043;BME280;13818;52.156;5.382;2024-02-28T11:49:01;101876.47;;;10.61;100.00
26043;BME280;13818;52.156;5.382;2024-02-28T11:51:28;101874.78;;;10.58;100.00
26043;BME280;13818;52.156;5.382;2024-02-28T11:53:55;101872.13;;;10.58;100.00
26043;BME280;13818;52.156;5.382;2024-02-28T11:56:21;101868.59;;;10.58;100.00
26043;BME280;13818;52.156;5.382;2024-02-28T11:58:52;101872.84;;;10.32;100.00
26043;BME280;13818;52.156;5.382;2024-02-28T12:01:32;101867.91;;;10.18;100.00
26043;BME280;13818;52.156;5.382;2024-02-28T12:03:59;101863.88;;;10.03;100.00
26043;BME280;13818;52.156;5.382;2024-02-28T12:06:27;101866.59;;;10.02;100.00
26043;BME280;13818;52.156;5.382;2024-02-28T12:08:53;101867.72;;;10.24;100.00
26043;BME280;13818;52.156;5.382;2024-02-28T12:11:20;101859.50;;;10.32;100.00
26043;BME280;13818;52.156;5.382;2024-02-28T12:13:46;101867.56;;;10.31;100.00
26043;BME280;13818;52.156;5.382;2024-02-28T12:16:13;101866.56;;;10.36;100.00
26043;BME280;13818;52.156;5.382;2024-02-28T12:18:40;101855.03;;;10.34;100.00
26043;BME280;13818;52.156;5.382;2024-02-28T12:21:07;101853.22;;;10.35;100.00
26043;BME280;13818;52.156;5.382;2024-02-28T12:23:35;101858.34;;;10.42;100.00
26043;BME280;13818;52.156;5.382;2024-02-28T12:26:01;101851.44;;;10.35;100.00
26043;BME280;13818;52.156;5.382;2024-02-28T12:28:28;101853.28;;;10.33;100.00
26043;BME280;13818;52.156;5.382;2024-02-28T12:30:56;101854.41;;;10.56;100.00
26043;BME280;13818;52.156;5.382;2024-02-28T12:33:23;101857.63;;;10.67;100.00
26043;BME280;13818;52.156;5.382;2024-02-28T12:35:49;101849.88;;;10.88;100.00
26043;BME280;13818;52.156;5.382;2024-02-28T12:38:17;101847.53;;;11.05;100.00
26043;BME280;13818;52.156;5.382;2024-02-28T12:40:46;101846.50;;;11.11;100.00
26043;BME280;13818;52.156;5.382;2024-02-28T12:43:12;101847.84;;;11.25;100.00
26043;BME280;13818;52.156;5.382;2024-02-28T12:45:39;101843.47;;;11.22;100.00
26043;BME280;13818;52.156;5.382;2024-02-28T12:48:06;101838.59;;;11.35;100.00